Time;durP1;ratioP1;P1;durP2;ratioP2;P2;SDS_P1;SDS_P2;PMS_P1;PMS_P2;Temp;Humidity;BMP_temperature;BMP_pressure;BME280_temperature;BME280_humidity;BME280_pressure;Samples;Min_cycle;Max_cycle;Signal;HPM_P1;HPM_P2
2021/08/05 00:02:12;;;;;;;5.95;4.20;;;13.80;99.90;;;;;;5129914;28;20040;-78
2021/08/05 00:04:39;;;;;;;6.28;4.00;;;13.70;99.90;;;;;;5147685;28;20089;-79
2021/08/05 00:07:06;;;;;;;7.07;3.53;;;13.80;99.90;;;;;;5147368;28;20059;-79
2021/08/05 00:09:33;;;;;;;5.28;3.67;;;13.70;99.90;;;;;;5147613;28;20137;-78
2021/08/05 00:12:00;;;;;;;6.13;4.03;;;13.70;99.90;;;;;;5130328;28;20067;-78
2021/08/05 00:14:27;;;;;;;6.75;4.22;;;13.70;99.90;;;;;;5147474;28;20067;-78
2021/08/05 00:16:54;;;;;;;5.65;4.15;;;13.60;99.90;;;;;;5130468;28;20036;-79
2021/08/05 00:19:21;;;;;;;8.32;4.38;;;13.70;99.90;;;;;;5147099;28;20043;-78
2021/08/05 00:21:47;;;;;;;6.97;4.28;;;13.70;99.90;;;;;;5148637;28;20042;-78
2021/08/05 00:24:14;;;;;;;7.03;4.63;;;13.70;99.90;;;;;;5113340;28;20036;-79
2021/08/05 00:26:41;;;;;;;7.22;4.60;;;13.60;99.90;;;;;;5130533;28;20430;-78
2021/08/05 00:29:08;;;;;;;8.85;4.95;;;13.70;99.90;;;;;;5146892;28;20106;-78
2021/08/05 00:31:35;;;;;;;6.57;4.88;;;13.60;99.90;;;;;;5130409;28;20484;-79
2021/08/05 00:34:01;;;;;;;6.70;4.28;;;13.60;99.90;;;;;;5113046;28;20036;-78
2021/08/05 00:36:28;;;;;;;6.72;4.80;;;13.60;99.90;;;;;;5147331;28;20036;-78
2021/08/05 00:38:55;;;;;;;7.47;4.95;;;13.60;99.90;;;;;;5130255;28;20031;-79
2021/08/05 00:41:22;;;;;;;6.05;4.25;;;13.60;99.90;;;;;;5146919;28;20525;-78
2021/08/05 00:43:49;;;;;;;6.82;4.22;;;13.60;99.90;;;;;;5147290;28;20063;-78
2021/08/05 00:46:15;;;;;;;6.75;4.60;;;13.60;99.90;;;;;;5146627;28;20140;-78
2021/08/05 00:48:42;;;;;;;7.25;4.40;;;13.60;99.90;;;;;;5113478;28;20038;-79
2021/08/05 00:51:09;;;;;;;7.50;4.32;;;13.60;99.90;;;;;;5113177;28;20035;-78
2021/08/05 00:53:38;;;;;;;7.78;4.70;;;13.50;99.90;;;;;;5130141;28;20123;-78
2021/08/05 00:56:05;;;;;;;6.20;4.60;;;13.50;99.90;;;;;;5129972;28;20035;-78
2021/08/05 00:58:32;;;;;;;5.90;4.25;;;13.50;99.90;;;;;;5146890;28;20036;-78
2021/08/05 01:01:08;;;;;;;7.60;4.95;;;13.50;99.90;;;;;;5130299;28;20040;-78
2021/08/05 01:03:40;;;;;;;7.68;5.07;;;13.50;99.90;;;;;;5147229;28;20101;-78
2021/08/05 01:06:31;;;;;;;7.15;5.00;;;13.50;99.90;;;;;;5129975;28;20036;-79
2021/08/05 01:09:08;;;;;;;6.22;4.43;;;13.50;99.90;;;;;;5146994;28;20059;-78
2021/08/05 01:11:41;;;;;;;7.22;5.30;;;13.50;99.90;;;;;;5147003;28;20672;-78
2021/08/05 01:14:12;;;;;;;8.40;5.53;;;13.50;99.90;;;;;;5147740;28;20028;-78
2021/08/05 01:16:42;;;;;;;8.15;5.82;;;13.50;99.90;;;;;;5151604;28;20069;-78
2021/08/05 01:19:17;;;;;;;6.85;4.88;;;13.50;99.90;;;;;;5151700;28;20040;-79
2021/08/05 01:21:51;;;;;;;7.70;5.03;;;13.50;99.90;;;;;;5152397;28;20028;-78
2021/08/05 01:24:23;;;;;;;7.93;4.55;;;13.40;99.90;;;;;;5151641;28;20426;-78
2021/08/05 01:26:54;;;;;;;7.13;5.05;;;13.40;99.90;;;;;;5150849;28;20044;-78
2021/08/05 01:29:21;;;;;;;7.55;4.88;;;13.40;99.90;;;;;;5150407;28;20071;-79
2021/08/05 01:31:49;;;;;;;7.53;4.75;;;13.40;99.90;;;;;;5152181;28;20420;-79
2021/08/05 01:34:17;;;;;;;7.78;5.30;;;13.30;99.90;;;;;;5133416;28;20040;-79
2021/08/05 01:36:46;;;;;;;7.55;4.88;;;13.30;99.90;;;;;;5150694;28;20069;-78
2021/08/05 01:39:13;;;;;;;7.07;5.30;;;13.30;99.90;;;;;;5150131;28;20055;-78
2021/08/05 01:41:41;;;;;;;6.75;5.00;;;13.20;99.90;;;;;;5133654;28;20035;-78
2021/08/05 01:44:10;;;;;;;9.70;5.10;;;13.20;99.90;;;;;;5133609;28;20041;-79
2021/08/05 01:46:39;;;;;;;7.65;5.13;;;13.20;99.90;;;;;;5142354;28;20042;-78
2021/08/05 01:49:07;;;;;;;9.35;4.88;;;13.10;99.90;;;;;;5146726;28;20487;-79
2021/08/05 01:51:34;;;;;;;8.77;4.93;;;13.10;99.90;;;;;;5137797;28;20032;-78
2021/08/05 01:54:02;;;;;;;8.70;5.80;;;13.10;99.90;;;;;;5129945;28;20093;-78
2021/08/05 01:56:29;;;;;;;8.65;5.30;;;13.10;99.90;;;;;;5129447;28;20040;-79
2021/08/05 01:58:57;;;;;;;9.95;5.32;;;13.10;99.90;;;;;;5112847;28;20134;-79
2021/08/05 02:01:24;;;;;;;8.35;6.10;;;13.10;99.90;;;;;;5112920;28;20048;-78
2021/08/05 02:03:58;;;;;;;10.48;6.10;;;13.10;99.90;;;;;;5130859;28;20036;-78
2021/08/05 02:06:27;;;;;;;10.90;6.28;;;13.10;99.90;;;;;;5129179;28;20510;-78
2021/08/05 02:09:00;;;;;;;8.25;6.00;;;13.10;99.90;;;;;;5130699;28;20434;-78
2021/08/05 02:11:30;;;;;;;9.30;6.28;;;13.10;99.90;;;;;;5130359;28;20035;-78
2021/08/05 02:13:59;;;;;;;12.23;6.68;;;13.10;99.90;;;;;;5129487;28;20043;-79
2021/08/05 02:16:28;;;;;;;9.05;6.07;;;13.10;99.90;;;;;;5128911;28;20438;-78
2021/08/05 02:18:56;;;;;;;9.90;6.40;;;13.10;99.90;;;;;;5129458;28;20082;-78
2021/08/05 02:21:28;;;;;;;8.73;6.45;;;13.10;99.90;;;;;;5112032;28;20036;-78
2021/08/05 02:23:59;;;;;;;8.60;6.63;;;13.10;99.90;;;;;;5129393;28;20040;-79
2021/08/05 02:26:27;;;;;;;10.57;7.28;;;13.10;99.90;;;;;;5127867;28;20097;-78
2021/08/05 02:28:54;;;;;;;8.80;7.05;;;13.10;99.90;;;;;;5112388;28;20044;-78
2021/08/05 02:31:22;;;;;;;11.48;7.18;;;13.20;99.90;;;;;;5129647;28;20036;-78
2021/08/05 02:33:51;;;;;;;10.57;7.57;;;13.10;99.90;;;;;;5129275;28;20092;-79
2021/08/05 02:36:18;;;;;;;9.23;7.45;;;13.10;99.90;;;;;;5129616;28;20036;-79
2021/08/05 02:38:45;;;;;;;10.15;7.40;;;13.10;99.90;;;;;;5129019;28;20047;-79
2021/08/05 02:41:13;;;;;;;10.32;6.90;;;13.10;99.90;;;;;;5095314;28;20378;-79
2021/08/05 02:43:44;;;;;;;13.00;7.80;;;13.00;99.90;;;;;;5128592;28;20043;-79
2021/08/05 02:46:12;;;;;;;10.52;7.57;;;13.00;99.90;;;;;;5129871;28;20437;-78
2021/08/05 02:48:40;;;;;;;12.55;8.18;;;13.00;99.90;;;;;;5129472;28;20043;-78
2021/08/05 02:51:07;;;;;;;11.98;8.20;;;13.00;99.90;;;;;;5112284;28;20028;-78
2021/08/05 02:53:34;;;;;;;11.05;8.13;;;13.00;99.90;;;;;;5128026;28;20423;-78
2021/08/05 02:56:01;;;;;;;10.27;8.10;;;12.90;99.90;;;;;;5111887;28;20063;-79
2021/08/05 02:58:29;;;;;;;12.05;8.10;;;12.90;99.90;;;;;;5127931;28;20036;-78
2021/08/05 03:00:56;;;;;;;12.52;7.65;;;12.90;99.90;;;;;;5111806;28;20040;-79
2021/08/05 03:03:23;;;;;;;10.05;8.15;;;12.80;99.90;;;;;;5129272;28;20032;-79
2021/08/05 03:05:55;;;;;;;11.00;8.75;;;12.80;99.90;;;;;;5129577;28;20044;-79
2021/08/05 03:08:22;;;;;;;10.88;8.25;;;12.80;99.90;;;;;;5129088;28;20032;-79
2021/08/05 03:10:49;;;;;;;11.90;8.13;;;12.80;99.90;;;;;;5111718;28;20032;-79
2021/08/05 03:13:16;;;;;;;9.48;7.40;;;12.70;99.90;;;;;;5128180;28;20469;-78
2021/08/05 03:15:43;;;;;;;12.63;7.82;;;12.70;99.90;;;;;;5127678;28;20078;-78
2021/08/05 03:18:09;;;;;;;11.18;8.30;;;12.70;99.90;;;;;;5111268;28;20036;-79
2021/08/05 03:20:36;;;;;;;11.27;8.55;;;12.70;99.90;;;;;;5110676;28;20480;-78
2021/08/05 03:23:03;;;;;;;15.30;8.93;;;12.60;99.90;;;;;;5111461;28;20499;-79
2021/08/05 03:25:30;;;;;;;13.27;9.48;;;12.60;99.90;;;;;;5110739;28;20043;-78
2021/08/05 03:27:56;;;;;;;16.45;9.68;;;12.60;99.90;;;;;;5128211;28;20370;-79
2021/08/05 03:30:23;;;;;;;14.20;9.57;;;12.60;99.90;;;;;;5094632;28;20463;-78
2021/08/05 03:32:50;;;;;;;13.40;10.10;;;12.60;99.90;;;;;;5110946;28;20511;-79
2021/08/05 03:35:17;;;;;;;13.52;10.70;;;12.50;99.90;;;;;;5110962;28;20479;-79
2021/08/05 03:37:44;;;;;;;13.35;9.18;;;12.60;99.90;;;;;;5093729;28;20051;-78
2021/08/05 03:40:11;;;;;;;12.85;10.07;;;12.50;99.90;;;;;;5127645;28;20032;-78
2021/08/05 03:42:37;;;;;;;12.10;9.48;;;12.50;99.90;;;;;;5128594;28;20043;-78
2021/08/05 03:45:05;;;;;;;14.20;10.02;;;12.50;99.90;;;;;;5110681;28;20039;-80
2021/08/05 03:47:35;;;;;;;11.52;9.30;;;12.50;99.90;;;;;;5128038;28;20089;-79
2021/08/05 03:50:03;;;;;;;14.95;9.70;;;12.50;99.90;;;;;;5127717;28;20040;-79
2021/08/05 03:52:33;;;;;;;12.25;9.05;;;12.50;99.90;;;;;;5110510;28;20114;-79
2021/08/05 03:55:01;;;;;;;13.70;9.82;;;12.50;99.90;;;;;;5110546;28;20119;-80
2021/08/05 03:57:27;;;;;;;14.93;10.10;;;12.40;99.90;;;;;;5110081;28;20028;-79
2021/08/05 03:59:54;;;;;;;15.02;10.20;;;12.40;99.90;;;;;;5110071;28;20128;-79
2021/08/05 04:02:21;;;;;;;13.25;10.15;;;12.40;99.90;;;;;;5110187;28;20062;-80
2021/08/05 04:04:48;;;;;;;12.50;9.13;;;12.40;99.90;;;;;;5110127;28;20378;-79
2021/08/05 04:07:15;;;;;;;15.52;10.88;;;12.40;99.90;;;;;;5110397;28;20044;-79
2021/08/05 04:09:42;;;;;;;11.68;9.57;;;12.40;99.90;;;;;;5126803;28;20032;-79
2021/08/05 04:12:09;;;;;;;15.02;10.27;;;12.40;99.90;;;;;;5110413;28;20040;-79
2021/08/05 04:14:36;;;;;;;17.05;10.40;;;12.40;99.90;;;;;;5110021;28;20032;-79
2021/08/05 04:17:03;;;;;;;13.38;10.43;;;12.40;99.90;;;;;;5110701;28;20131;-80
2021/08/05 04:19:30;;;;;;;15.75;10.80;;;12.40;99.90;;;;;;5110095;28;20036;-79
2021/08/05 04:21:56;;;;;;;13.43;10.43;;;12.30;99.90;;;;;;5126984;28;20040;-79
2021/08/05 04:24:23;;;;;;;15.10;10.95;;;12.30;99.90;;;;;;5127161;28;20032;-79
2021/08/05 04:26:50;;;;;;;15.05;11.38;;;12.40;99.90;;;;;;5109685;28;20044;-79
2021/08/05 04:29:17;;;;;;;16.13;10.43;;;12.40;99.90;;;;;;5126969;28;20039;-79
2021/08/05 04:31:44;;;;;;;14.60;11.00;;;12.40;99.90;;;;;;5093314;28;20035;-79
2021/08/05 04:34:11;;;;;;;14.48;10.55;;;12.40;99.90;;;;;;5110116;28;20036;-79
2021/08/05 04:36:38;;;;;;;16.05;11.50;;;12.40;99.90;;;;;;5109901;28;20036;-80
2021/08/05 04:39:05;;;;;;;15.35;11.60;;;12.50;99.90;;;;;;5093622;28;20438;-80
2021/08/05 04:41:33;;;;;;;18.38;11.88;;;12.50;99.90;;;;;;5110093;28;20043;-80
2021/08/05 04:44:00;;;;;;;15.45;12.07;;;12.50;99.90;;;;;;5126852;28;20036;-80
2021/08/05 04:46:26;;;;;;;14.85;11.85;;;12.60;99.90;;;;;;5128034;28;20037;-80
2021/08/05 04:48:53;;;;;;;15.30;11.63;;;12.50;99.90;;;;;;5111762;28;20071;-80
2021/08/05 04:51:20;;;;;;;15.32;11.45;;;12.50;99.90;;;;;;5116832;28;20036;-80
2021/08/05 04:53:47;;;;;;;15.82;11.35;;;12.60;99.90;;;;;;5099529;28;20042;-80
2021/08/05 04:56:13;;;;;;;18.88;12.68;;;12.60;99.90;;;;;;5116854;28;20046;-80
2021/08/05 04:58:40;;;;;;;18.50;12.45;;;12.70;99.90;;;;;;5118469;28;20052;-79
2021/08/05 05:01:07;;;;;;;16.65;12.32;;;12.70;99.90;;;;;;5116906;28;20042;-81
2021/08/05 05:03:36;;;;;;;18.42;12.82;;;12.70;99.90;;;;;;5116615;28;20032;-79
2021/08/05 05:06:02;;;;;;;18.58;14.88;;;12.80;99.90;;;;;;5136717;28;20046;-80
2021/08/05 05:08:30;;;;;;;19.88;15.30;;;12.90;99.90;;;;;;5116385;28;20040;-80
2021/08/05 05:10:57;;;;;;;20.25;15.18;;;13.00;99.90;;;;;;5116128;28;20498;-79
2021/08/05 05:13:24;;;;;;;17.05;13.38;;;13.00;99.90;;;;;;5133305;28;20032;-80
2021/08/05 05:15:51;;;;;;;19.80;13.98;;;13.10;99.90;;;;;;5116108;28;20044;-79
2021/08/05 05:18:20;;;;;;;17.88;14.25;;;13.00;99.90;;;;;;5133127;28;20058;-80
2021/08/05 05:20:48;;;;;;;18.92;15.25;;;13.00;99.90;;;;;;5132828;28;20124;-79
2021/08/05 05:23:15;;;;;;;21.27;15.82;;;13.10;99.90;;;;;;5134684;28;20036;-80
2021/08/05 05:25:42;;;;;;;17.50;13.48;;;13.20;99.90;;;;;;5134006;28;20031;-79
2021/08/05 05:28:09;;;;;;;19.58;14.40;;;13.20;99.90;;;;;;5133363;28;20110;-79
2021/08/05 05:30:38;;;;;;;22.55;16.00;;;13.30;99.90;;;;;;5133161;28;20395;-80
2021/08/05 05:33:05;;;;;;;17.38;14.55;;;13.40;99.90;;;;;;5146773;28;20034;-80
2021/08/05 05:35:33;;;;;;;18.23;14.95;;;13.40;99.90;;;;;;5144748;28;20031;-79
2021/08/05 05:38:00;;;;;;;18.05;14.52;;;13.50;99.90;;;;;;5102056;28;20391;-80
2021/08/05 05:40:27;;;;;;;20.77;15.77;;;13.50;99.90;;;;;;5144151;28;20145;-80
2021/08/05 05:42:54;;;;;;;19.15;15.23;;;13.60;99.90;;;;;;5127870;28;20373;-79
2021/08/05 05:45:22;;;;;;;19.15;14.95;;;13.70;99.90;;;;;;5137025;28;20040;-79
2021/08/05 05:47:49;;;;;;;18.08;14.85;;;13.70;99.90;;;;;;5122353;28;20449;-79
2021/08/05 05:50:17;;;;;;;18.30;14.55;;;13.80;99.90;;;;;;5118687;28;20043;-80
2021/08/05 05:52:44;;;;;;;21.05;14.18;;;13.80;99.90;;;;;;5115588;28;20032;-79
2021/08/05 05:55:11;;;;;;;18.10;14.13;;;13.90;99.90;;;;;;5152523;28;20043;-80
2021/08/05 05:57:49;;;;;;;17.70;14.13;;;14.00;99.90;;;;;;5117444;28;20541;-79
2021/08/05 06:00:20;;;;;;;19.77;15.18;;;14.00;99.90;;;;;;5116126;28;20082;-80
2021/08/05 06:02:47;;;;;;;17.35;14.40;;;14.00;99.90;;;;;;5149734;28;20050;-80
2021/08/05 06:05:14;;;;;;;18.45;15.10;;;14.00;99.90;;;;;;5113380;28;20047;-80
2021/08/05 06:07:48;;;;;;;19.10;15.02;;;14.00;99.90;;;;;;5150213;28;20031;-79
2021/08/05 06:10:19;;;;;;;19.35;14.65;;;14.10;99.90;;;;;;5133558;28;20089;-79
2021/08/05 06:12:48;;;;;;;17.10;14.93;;;14.10;99.90;;;;;;5132223;28;20476;-79
2021/08/05 06:15:15;;;;;;;17.40;13.93;;;14.20;99.90;;;;;;5129492;28;20369;-80
2021/08/05 06:17:43;;;;;;;16.63;14.27;;;14.20;99.90;;;;;;5096375;28;20036;-79
2021/08/05 06:20:12;;;;;;;20.58;14.07;;;14.30;99.90;;;;;;5129036;28;20131;-81
2021/08/05 06:22:40;;;;;;;17.90;13.77;;;14.30;99.90;;;;;;5112718;28;20079;-79
2021/08/05 06:25:08;;;;;;;18.10;14.95;;;14.40;99.90;;;;;;5125458;28;20373;-78
2021/08/05 06:27:36;;;;;;;18.05;13.90;;;14.50;99.90;;;;;;5132076;28;20086;-78
2021/08/05 06:30:04;;;;;;;18.75;13.55;;;14.60;99.90;;;;;;5129005;28;20061;-78
2021/08/05 06:32:31;;;;;;;17.30;13.73;;;14.60;99.90;;;;;;5133612;28;20032;-79
2021/08/05 06:34:58;;;;;;;17.67;13.93;;;14.70;99.90;;;;;;5126285;28;20043;-79
2021/08/05 06:37:25;;;;;;;17.52;13.13;;;14.80;99.90;;;;;;5112322;28;20040;-78
2021/08/05 06:39:53;;;;;;;15.43;13.23;;;14.90;99.90;;;;;;5096961;28;20048;-79
2021/08/05 06:42:20;;;;;;;15.82;12.93;;;15.00;99.90;;;;;;5132985;28;20059;-79
2021/08/05 06:44:47;;;;;;;15.13;12.52;;;15.10;99.90;;;;;;5146677;28;20046;-79
2021/08/05 06:47:14;;;;;;;15.32;12.50;;;15.10;99.90;;;;;;5096254;28;20032;-79
2021/08/05 06:49:41;;;;;;;13.60;12.10;;;15.30;99.90;;;;;;5112043;28;20036;-78
2021/08/05 06:52:08;;;;;;;17.70;11.30;;;15.30;99.90;;;;;;5098483;28;20473;-80
2021/08/05 06:54:35;;;;;;;14.35;12.82;;;15.40;99.90;;;;;;5131108;28;20042;-80
2021/08/05 06:57:02;;;;;;;15.07;13.27;;;15.50;99.90;;;;;;5131344;28;20042;-80
2021/08/05 06:59:28;;;;;;;14.60;12.38;;;15.60;99.90;;;;;;5127819;28;20040;-80
2021/08/05 07:01:55;;;;;;;14.52;11.23;;;15.60;99.90;;;;;;5147692;28;20586;-80
2021/08/05 07:04:22;;;;;;;13.77;12.05;;;15.80;99.90;;;;;;5101702;28;20438;-80
2021/08/05 07:06:49;;;;;;;13.02;11.57;;;15.90;99.90;;;;;;5122064;28;20086;-80
2021/08/05 07:09:16;;;;;;;14.23;10.70;;;16.10;99.90;;;;;;5123727;28;20051;-80
2021/08/05 07:11:43;;;;;;;14.57;10.63;;;16.20;99.90;;;;;;5114066;28;20119;-80
2021/08/05 07:14:10;;;;;;;13.48;9.90;;;16.40;99.90;;;;;;5128375;28;20520;-80
2021/08/05 07:16:37;;;;;;;14.48;11.00;;;16.50;99.90;;;;;;5142925;28;20501;-80
2021/08/05 07:19:03;;;;;;;12.50;10.98;;;16.60;99.90;;;;;;5123372;28;20548;-80
2021/08/05 07:21:30;;;;;;;13.93;10.15;;;16.60;99.90;;;;;;5127125;28;20032;-80
2021/08/05 07:23:57;;;;;;;12.90;10.52;;;16.70;99.90;;;;;;5120689;28;20036;-81
2021/08/05 07:26:24;;;;;;;11.55;9.35;;;16.80;99.90;;;;;;5135900;28;20031;-81
2021/08/05 07:28:51;;;;;;;10.80;9.07;;;16.90;99.90;;;;;;5128022;28;20046;-80
2021/08/05 07:31:19;;;;;;;10.32;8.90;;;17.00;99.90;;;;;;5126909;28;20036;-82
2021/08/05 07:33:48;;;;;;;10.02;8.70;;;17.00;99.90;;;;;;5130982;28;20038;-81
2021/08/05 07:36:17;;;;;;;11.02;9.57;;;17.10;99.90;;;;;;5127846;28;20046;-81
2021/08/05 07:38:44;;;;;;;10.40;8.40;;;17.10;99.90;;;;;;5140798;28;20464;-81
2021/08/05 07:41:11;;;;;;;9.77;8.30;;;17.20;99.90;;;;;;5136003;28;20040;-81
2021/08/05 07:43:38;;;;;;;11.55;9.13;;;17.30;99.90;;;;;;5140509;28;20465;-81
2021/08/05 07:46:05;;;;;;;10.40;8.60;;;17.40;99.90;;;;;;5117956;28;20036;-80
2021/08/05 07:48:32;;;;;;;12.43;8.10;;;17.50;99.90;;;;;;5130921;28;20035;-82
2021/08/05 07:50:59;;;;;;;11.18;8.38;;;17.50;99.90;;;;;;5134024;28;20114;-80
2021/08/05 07:53:26;;;;;;;10.20;8.57;;;17.60;99.90;;;;;;5110432;28;20521;-81
2021/08/05 07:55:52;;;;;;;10.68;8.40;;;17.60;99.90;;;;;;5130024;28;20112;-80
2021/08/05 07:58:19;;;;;;;9.50;7.82;;;17.70;99.90;;;;;;5112062;28;20043;-78
2021/08/05 08:00:47;;;;;;;10.60;6.65;;;17.70;99.90;;;;;;5130861;28;20064;-80
2021/08/05 08:03:15;;;;;;;8.60;7.05;;;17.80;99.90;;;;;;5146909;28;20042;-81
2021/08/05 08:05:44;;;;;;;9.65;7.88;;;17.80;99.90;;;;;;5114387;28;20572;-80
2021/08/05 08:08:11;;;;;;;8.75;6.97;;;17.80;99.90;;;;;;5147446;28;20037;-81
2021/08/05 08:10:39;;;;;;;7.30;6.20;;;17.90;99.90;;;;;;5133005;28;20468;-81
2021/08/05 08:13:06;;;;;;;9.18;6.60;;;18.10;99.90;;;;;;5110381;28;20052;-79
2021/08/05 08:15:33;;;;;;;8.05;6.63;;;18.20;99.90;;;;;;5098448;28;20132;-80
2021/08/05 08:18:00;;;;;;;8.70;7.28;;;18.30;99.90;;;;;;5093581;28;20036;-80
2021/08/05 08:20:27;;;;;;;7.65;6.43;;;18.40;99.90;;;;;;5110509;28;20062;-81
2021/08/05 08:22:54;;;;;;;8.05;6.70;;;18.40;99.90;;;;;;5136776;28;20081;-80
2021/08/05 08:25:20;;;;;;;8.10;6.47;;;18.60;99.90;;;;;;5128491;28;20032;-81
2021/08/05 08:27:47;;;;;;;8.20;6.60;;;18.70;99.90;;;;;;5093550;28;20089;-79
2021/08/05 08:30:15;;;;;;;7.90;6.30;;;18.90;99.90;;;;;;5109834;28;20047;-80
2021/08/05 08:32:44;;;;;;;9.23;5.78;;;19.00;99.90;;;;;;5110351;28;20056;-80
2021/08/05 08:35:11;;;;;;;6.25;5.60;;;19.10;99.90;;;;;;5136819;28;20039;-80
2021/08/05 08:37:38;;;;;;;7.18;5.38;;;19.20;99.90;;;;;;5106785;28;20035;-80
2021/08/05 08:40:06;;;;;;;6.10;5.25;;;19.30;99.90;;;;;;5122090;28;20099;-80
2021/08/05 08:42:34;;;;;;;6.50;5.25;;;19.40;99.90;;;;;;5126687;28;20083;-80
2021/08/05 08:45:01;;;;;;;10.10;5.72;;;19.50;99.90;;;;;;5114928;28;20111;-81
2021/08/05 08:47:28;;;;;;;8.98;5.78;;;19.50;99.90;;;;;;5110220;28;20040;-80
2021/08/05 08:49:57;;;;;;;7.22;5.78;;;19.60;99.90;;;;;;5109835;28;20057;-81
2021/08/05 08:52:29;;;;;;;7.22;4.68;;;19.70;99.90;;;;;;5109676;28;20036;-81
2021/08/05 08:54:57;;;;;;;5.82;5.03;;;19.70;99.90;;;;;;5141491;28;20036;-80
2021/08/05 08:57:31;;;;;;;6.70;5.20;;;19.90;99.90;;;;;;5146552;28;20051;-80
2021/08/05 08:59:58;;;;;;;6.10;4.85;;;20.00;99.90;;;;;;5146716;28;20572;-81
2021/08/05 09:02:26;;;;;;;6.25;4.45;;;20.10;99.90;;;;;;5121396;28;20399;-80
2021/08/05 09:04:54;;;;;;;5.78;4.30;;;20.20;99.90;;;;;;5130158;28;20057;-81
2021/08/05 09:07:22;;;;;;;5.93;4.47;;;20.40;99.90;;;;;;5112625;28;20043;-81
2021/08/05 09:09:51;;;;;;;5.85;4.10;;;20.50;99.90;;;;;;5148592;28;20040;-80
2021/08/05 09:12:18;;;;;;;6.40;4.32;;;20.60;99.90;;;;;;5133563;28;20040;-74
2021/08/05 09:14:51;;;;;;;5.47;3.83;;;20.70;99.90;;;;;;5126638;28;20048;-81
2021/08/05 09:17:30;;;;;;;5.50;3.75;;;20.90;99.90;;;;;;5114991;28;20040;-81
2021/08/05 09:20:03;;;;;;;5.75;3.88;;;21.00;99.90;;;;;;5130255;28;20077;-80
2021/08/05 09:22:43;;;;;;;5.72;3.90;;;21.00;99.90;;;;;;5138647;28;20036;-81
2021/08/05 09:25:28;;;;;;;6.30;3.90;;;21.00;99.90;;;;;;5126415;28;20388;-81
2021/08/05 09:28:14;;;;;;;5.17;3.53;;;21.20;99.90;;;;;;5137960;28;20498;-81
2021/08/05 09:30:42;;;;;;;4.75;3.35;;;21.30;99.90;;;;;;5138300;28;20443;-80
2021/08/05 09:33:14;;;;;;;5.95;3.70;;;21.40;99.90;;;;;;5129886;28;20105;-81
2021/08/05 09:35:44;;;;;;;5.13;3.50;;;21.50;99.90;;;;;;5150247;28;20511;-80
2021/08/05 09:38:17;;;;;;;5.05;3.20;;;21.60;99.90;;;;;;5151174;28;20046;-81
2021/08/05 09:40:44;;;;;;;6.30;2.85;;;21.70;99.90;;;;;;5150678;28;20040;-80
2021/08/05 09:43:10;;;;;;;5.05;3.40;;;21.90;99.90;;;;;;5116750;28;20096;-80
2021/08/05 09:45:39;;;;;;;3.95;2.70;;;21.90;99.90;;;;;;5149917;28;20446;-69
2021/08/05 09:48:06;;;;;;;4.40;2.97;;;21.90;99.90;;;;;;5129210;28;20043;-71
2021/08/05 09:50:33;;;;;;;4.68;3.00;;;22.00;99.90;;;;;;5149459;28;20372;-72
2021/08/05 09:53:10;;;;;;;5.07;3.30;;;22.10;99.90;;;;;;5132278;28;20556;-76
2021/08/05 09:55:40;;;;;;;5.70;3.13;;;22.40;99.90;;;;;;5149399;28;20046;-77
2021/08/05 09:58:08;;;;;;;4.55;3.20;;;22.60;99.90;;;;;;5130490;28;20039;-77
2021/08/05 10:00:43;;;;;;;4.55;2.88;;;22.70;99.90;;;;;;5116326;28;20165;-78
2021/08/05 10:03:10;;;;;;;4.85;3.03;;;22.90;99.90;;;;;;5132595;28;20092;-77
2021/08/05 10:05:37;;;;;;;4.38;2.60;;;23.00;99.90;;;;;;5118244;28;20063;-77
2021/08/05 10:08:05;;;;;;;5.13;3.05;;;23.10;99.90;;;;;;5112384;28;20032;-77
2021/08/05 10:10:51;;;;;;;4.63;3.38;;;23.20;99.90;;;;;;5130837;28;20039;-78
2021/08/05 10:13:29;;;;;;;4.40;3.20;;;23.20;99.90;;;;;;5148721;28;20047;-77
2021/08/05 10:15:57;;;;;;;4.45;2.83;;;23.30;99.90;;;;;;5149649;28;20043;-77
2021/08/05 10:18:29;;;;;;;4.10;2.90;;;23.40;99.90;;;;;;5132270;28;20032;-78
2021/08/05 10:20:58;;;;;;;5.82;2.63;;;23.40;99.90;;;;;;5132614;28;20036;-78
2021/08/05 10:23:28;;;;;;;4.30;2.47;;;23.50;99.90;;;;;;5128569;28;20032;-78
2021/08/05 10:25:57;;;;;;;5.18;2.78;;;23.40;99.90;;;;;;5130154;28;20103;-79
2021/08/05 10:28:25;;;;;;;3.90;2.80;;;23.30;99.90;;;;;;5139973;28;20475;-77
2021/08/05 10:30:53;;;;;;;3.67;2.30;;;23.30;99.90;;;;;;5132737;28;20114;-78
2021/08/05 10:33:21;;;;;;;3.97;2.47;;;23.30;99.90;;;;;;5097352;28;20111;-79
2021/08/05 10:35:50;;;;;;;4.18;2.25;;;23.40;99.90;;;;;;5128636;28;20484;-77
2021/08/05 10:38:18;;;;;;;3.65;2.20;;;23.50;99.90;;;;;;5129044;28;20081;-82
2021/08/05 10:40:47;;;;;;;3.83;2.13;;;23.50;99.90;;;;;;5128990;28;20032;-78
2021/08/05 10:43:14;;;;;;;4.82;2.33;;;23.60;99.90;;;;;;5128112;28;20040;-86
2021/08/05 10:45:42;;;;;;;5.22;2.88;;;23.80;99.90;;;;;;5129393;28;20043;-76
2021/08/05 10:48:10;;;;;;;5.50;2.60;;;23.90;99.90;;;;;;5111519;28;20361;-88
2021/08/05 10:50:43;;;;;;;3.30;2.28;;;24.00;99.90;;;;;;5129579;28;20085;-81
2021/08/05 10:53:30;;;;;;;4.32;2.35;;;24.00;99.90;;;;;;5129757;28;20137;-80
2021/08/05 10:56:20;;;;;;;3.95;2.40;;;24.00;99.90;;;;;;5127916;28;20048;-82
2021/08/05 10:59:11;;;;;;;3.97;2.80;;;24.10;99.90;;;;;;5130714;28;20055;-84
2021/08/05 11:01:55;;;;;;;5.10;2.20;;;24.00;99.90;;;;;;5127466;28;20063;-81
2021/08/05 11:04:40;;;;;;;5.07;3.00;;;24.10;99.90;;;;;;5127979;28;20040;-80
2021/08/05 11:07:26;;;;;;;3.83;2.33;;;24.20;99.90;;;;;;5127818;28;20044;-81
2021/08/05 11:10:13;;;;;;;5.38;3.45;;;24.20;99.90;;;;;;5129125;28;20039;-82
2021/08/05 11:12:47;;;;;;;4.00;2.80;;;24.20;99.90;;;;;;5111783;28;20068;-83
2021/08/05 11:15:21;;;;;;;4.60;3.15;;;24.10;99.90;;;;;;5129576;28;20043;-84
2021/08/05 11:18:10;;;;;;;4.55;3.22;;;24.10;99.90;;;;;;5127896;28;20392;-81
2021/08/05 11:20:42;;;;;;;5.93;3.60;;;24.00;99.90;;;;;;5127611;28;20043;-82
2021/08/05 11:23:37;;;;;;;6.78;4.40;;;24.00;99.90;;;;;;5128256;28;20040;-83
2021/08/05 11:26:07;;;;;;;4.50;3.33;;;23.90;99.90;;;;;;5128259;28;20064;-81
2021/08/05 11:28:47;;;;;;;5.15;3.40;;;24.10;99.90;;;;;;5127423;28;20043;-81
2021/08/05 11:31:23;;;;;;;5.28;3.05;;;24.10;99.90;;;;;;5110547;28;20119;-80
2021/08/05 11:33:51;;;;;;;5.43;3.28;;;24.20;99.90;;;;;;5128073;28;20058;-80
2021/08/05 11:36:24;;;;;;;4.47;2.92;;;24.20;99.90;;;;;;5110238;28;20059;-81
2021/08/05 11:39:25;;;;;;;4.18;2.75;;;24.30;99.90;;;;;;5128592;28;20036;-80
2021/08/05 11:42:01;;;;;;;5.03;3.13;;;24.30;99.90;;;;;;5127607;28;20104;-80
2021/08/05 11:44:30;;;;;;;6.78;3.53;;;24.30;99.90;;;;;;5142821;28;20439;-79
2021/08/05 11:47:00;;;;;;;6.55;2.83;;;24.30;99.90;;;;;;5127157;28;20130;-80
2021/08/05 11:49:36;;;;;;;5.03;3.25;;;24.20;99.90;;;;;;5127960;28;20039;-80
2021/08/05 11:52:24;;;;;;;5.93;3.50;;;24.00;99.90;;;;;;5128180;28;20044;-79
2021/08/05 11:54:58;;;;;;;5.60;3.65;;;24.00;99.90;;;;;;5148719;28;20138;-79
2021/08/05 11:57:26;;;;;;;6.22;3.45;;;23.90;99.90;;;;;;5146938;28;20043;-80
2021/08/05 11:59:55;;;;;;;4.95;3.00;;;23.80;99.90;;;;;;5146549;28;20052;-80
2021/08/05 12:02:24;;;;;;;5.80;3.63;;;23.70;99.90;;;;;;5143563;28;20051;-80
2021/08/05 12:04:53;;;;;;;5.57;3.15;;;23.70;99.90;;;;;;5126919;28;20032;-79
2021/08/05 12:07:29;;;;;;;5.28;3.25;;;23.70;99.90;;;;;;5126431;28;20032;-81
2021/08/05 12:10:06;;;;;;;4.03;2.65;;;23.60;99.90;;;;;;5128461;28;20047;-80
2021/08/05 12:12:43;;;;;;;7.82;2.55;;;23.50;99.90;;;;;;5131127;28;20027;-80
2021/08/05 12:15:12;;;;;;;6.03;3.00;;;23.60;99.90;;;;;;5147366;28;20036;-80
2021/08/05 12:17:48;;;;;;;4.47;2.92;;;23.60;99.90;;;;;;5146695;28;20040;-80
2021/08/05 12:20:26;;;;;;;5.03;3.08;;;23.70;99.90;;;;;;5147041;28;20039;-79
2021/08/05 12:22:54;;;;;;;3.28;2.33;;;23.70;99.90;;;;;;5147276;28;20670;-80
2021/08/05 12:25:29;;;;;;;5.25;2.90;;;23.80;99.90;;;;;;5146711;28;20123;-81
2021/08/05 12:27:59;;;;;;;4.70;2.88;;;23.80;99.90;;;;;;5146995;28;20081;-80
2021/08/05 12:30:38;;;;;;;5.28;2.40;;;23.80;99.90;;;;;;5146808;28;20063;-81
2021/08/05 12:33:22;;;;;;;5.45;2.72;;;23.80;99.90;;;;;;5146614;28;20487;-81
2021/08/05 12:36:13;;;;;;;3.95;2.40;;;23.80;99.90;;;;;;5127394;28;20467;-80
2021/08/05 12:38:42;;;;;;;3.20;2.20;;;23.90;99.90;;;;;;5135732;28;20036;-79
2021/08/05 12:41:14;;;;;;;3.80;2.47;;;23.90;99.90;;;;;;5126421;28;20047;-80
2021/08/05 12:43:43;;;;;;;4.93;2.15;;;23.90;99.90;;;;;;5127092;28;20040;-81
2021/08/05 12:46:11;;;;;;;3.65;2.35;;;23.70;99.90;;;;;;5126435;28;20403;-80
2021/08/05 12:48:39;;;;;;;4.30;2.40;;;23.70;99.90;;;;;;5125841;28;20036;-82
2021/08/05 12:51:06;;;;;;;3.25;2.22;;;23.50;99.90;;;;;;5126616;28;20036;-81
2021/08/05 12:53:35;;;;;;;3.63;2.20;;;23.40;99.90;;;;;;5104872;28;20036;-81